createdAt,value
2022-09-15T00:01:14.207Z,2.08
2022-09-15T00:03:42.732Z,2.17
2022-09-15T00:06:11.482Z,2.97
2022-09-15T00:08:39.796Z,3.55
2022-09-15T00:11:20.163Z,3.35
2022-09-15T00:13:47.710Z,2.58
2022-09-15T00:16:15.998Z,3.40
2022-09-15T00:18:45.074Z,2.95
2022-09-15T00:21:18.814Z,2.63
2022-09-15T00:23:47.242Z,2.80
2022-09-15T00:26:18.919Z,3.88
2022-09-15T00:28:46.805Z,2.92
2022-09-15T00:31:17.280Z,2.60
2022-09-15T00:33:49.803Z,2.70
2022-09-15T00:36:18.483Z,3.25
2022-09-15T00:38:46.436Z,3.33
2022-09-15T00:41:16.946Z,3.85
2022-09-15T00:43:49.918Z,3.83
2022-09-15T00:46:20.899Z,3.45
2022-09-15T00:49:11.546Z,3.75
2022-09-15T00:51:48.911Z,2.90
2022-09-15T00:54:25.556Z,2.85
2022-09-15T00:56:56.234Z,3.50
2022-09-15T00:59:26.417Z,2.77
2022-09-15T01:02:23.215Z,3.08
2022-09-15T01:04:58.422Z,2.55
2022-09-15T01:07:37.914Z,2.65
2022-09-15T01:10:13.906Z,3.47
2022-09-15T01:12:42.059Z,2.90
2022-09-15T01:15:09.741Z,2.92
2022-09-15T01:17:49.099Z,3.25
2022-09-15T01:20:38.495Z,3.78
2022-09-15T01:23:31.108Z,3.03
2022-09-15T01:26:25.402Z,2.35
2022-09-15T01:29:24.128Z,2.30
2022-09-15T01:32:19.263Z,3.20
2022-09-15T01:35:02.809Z,2.83
2022-09-15T01:37:36.859Z,2.95
2022-09-15T01:40:06.685Z,3.38
2022-09-15T01:42:36.084Z,2.03
2022-09-15T01:45:17.836Z,2.50
2022-09-15T01:50:20.575Z,3.55
2022-09-15T01:52:50.017Z,2.78
2022-09-15T01:55:26.520Z,2.58
2022-09-15T01:57:54.094Z,2.35
2022-09-15T02:00:21.694Z,3.47
2022-09-15T02:02:55.243Z,2.70
2022-09-15T02:05:32.516Z,2.35
2022-09-15T02:08:11.551Z,2.55
2022-09-15T02:10:48.579Z,2.00
2022-09-15T02:13:29.099Z,2.53
2022-09-15T02:16:00.073Z,2.22
2022-09-15T02:18:34.781Z,2.13
2022-09-15T02:21:12.730Z,2.05
2022-09-15T02:23:44.863Z,2.95
2022-09-15T02:26:17.577Z,2.20
2022-09-15T02:28:48.964Z,2.00
2022-09-15T02:31:20.929Z,2.45
2022-09-15T02:33:55.286Z,2.25
2022-09-15T02:36:26.034Z,2.50
2022-09-15T02:39:00.107Z,2.70
2022-09-15T02:41:27.782Z,2.50
2022-09-15T02:43:55.304Z,2.42
2022-09-15T02:46:23.034Z,2.33
2022-09-15T02:48:50.585Z,2.20
2022-09-15T02:51:18.638Z,2.30
2022-09-15T02:53:46.419Z,2.15
2022-09-15T02:56:15.727Z,2.70
2022-09-15T02:58:44.111Z,2.42
2022-09-15T03:01:17.162Z,2.55
2022-09-15T03:03:45.946Z,2.40
2022-09-15T03:06:16.909Z,1.83
2022-09-15T03:08:52.289Z,2.50
2022-09-15T03:11:22.967Z,2.25
2022-09-15T03:13:58.701Z,2.33
2022-09-15T03:16:27.915Z,3.03
2022-09-15T03:18:58.713Z,2.35
2022-09-15T03:21:29.511Z,2.07
2022-09-15T03:23:58.462Z,2.13
2022-09-15T03:26:26.396Z,2.58
2022-09-15T03:28:54.050Z,2.22
2022-09-15T03:31:21.664Z,2.53
2022-09-15T03:33:49.392Z,2.92
2022-09-15T03:36:17.150Z,2.10
2022-09-15T03:38:44.805Z,2.75
2022-09-15T03:41:12.728Z,2.50
2022-09-15T03:43:41.479Z,3.13
2022-09-15T03:46:11.966Z,2.33
2022-09-15T03:48:40.596Z,2.03
2022-09-15T03:51:10.615Z,2.30
2022-09-15T03:53:40.387Z,2.60
2022-09-15T03:56:26.548Z,1.80
2022-09-15T03:58:54.841Z,2.20
2022-09-15T04:01:23.530Z,2.50
2022-09-15T04:03:51.733Z,2.38
2022-09-15T04:06:20.944Z,2.30
2022-09-15T04:08:49.955Z,1.95
2022-09-15T04:11:19.178Z,2.78
2022-09-15T04:13:47.242Z,2.13
2022-09-15T04:16:17.621Z,1.85
2022-09-15T04:18:45.728Z,2.25
2022-09-15T04:21:16.174Z,2.38
2022-09-15T04:23:44.333Z,2.00
2022-09-15T04:26:26.853Z,2.67
2022-09-15T04:28:54.519Z,2.53
2022-09-15T04:31:22.203Z,2.97
2022-09-15T04:33:52.883Z,2.60
2022-09-15T04:36:23.380Z,2.40
2022-09-15T04:38:51.788Z,2.17
2022-09-15T04:41:20.567Z,2.05
2022-09-15T04:43:48.267Z,2.20
2022-09-15T04:46:16.763Z,2.47
2022-09-15T04:48:46.154Z,2.28
2022-09-15T04:51:17.738Z,1.50
2022-09-15T04:53:46.041Z,2.08
2022-09-15T04:56:16.446Z,2.25
2022-09-15T04:58:46.854Z,2.17
2022-09-15T05:01:20.034Z,2.35
2022-09-15T05:03:48.187Z,1.90
2022-09-15T05:06:18.249Z,2.63
2022-09-15T05:08:55.191Z,2.22
2022-09-15T05:11:23.762Z,1.83
2022-09-15T05:13:51.645Z,2.20
2022-09-15T05:16:21.806Z,1.80
2022-09-15T05:18:50.795Z,1.85
2022-09-15T05:21:20.614Z,1.92
2022-09-15T05:23:49.164Z,2.22
2022-09-15T05:26:19.966Z,1.90
2022-09-15T05:28:47.622Z,2.00
2022-09-15T05:31:20.480Z,2.35
2022-09-15T05:33:49.999Z,1.48
2022-09-15T05:36:20.311Z,2.72
2022-09-15T05:38:47.923Z,2.28
2022-09-15T05:41:17.910Z,2.95
2022-09-15T05:43:47.263Z,2.03
2022-09-15T05:46:15.998Z,2.53
2022-09-15T05:48:43.876Z,7.60
2022-09-15T05:51:12.167Z,2.00
2022-09-15T05:53:39.781Z,2.08
2022-09-15T05:56:10.804Z,2.25
2022-09-15T05:58:43.129Z,2.03
2022-09-15T06:01:17.578Z,3.15
2022-09-15T06:03:48.179Z,2.63
2022-09-15T06:06:16.417Z,2.35
2022-09-15T06:08:48.258Z,2.17
2022-09-15T06:11:19.514Z,2.47
2022-09-15T06:13:47.876Z,2.03
2022-09-15T06:16:24.132Z,2.13
2022-09-15T06:18:53.209Z,2.53
2022-09-15T06:21:27.000Z,2.20
2022-09-15T06:23:56.270Z,2.22
2022-09-15T06:26:24.827Z,3.03
2022-09-15T06:28:58.032Z,2.60
2022-09-15T06:31:28.509Z,2.83
2022-09-15T06:33:57.827Z,2.83
2022-09-15T06:36:27.527Z,3.45
2022-09-15T06:38:55.519Z,2.90
2022-09-15T06:41:23.640Z,2.63
2022-09-15T06:43:51.517Z,2.38
2022-09-15T06:46:21.549Z,3.22
2022-09-15T06:48:51.286Z,3.67
2022-09-15T06:51:22.376Z,4.28
2022-09-15T06:53:50.691Z,2.72
2022-09-15T06:56:21.291Z,2.38
2022-09-15T06:58:49.494Z,2.30
2022-09-15T07:01:22.850Z,2.22
2022-09-15T07:03:51.078Z,2.63
2022-09-15T07:06:19.195Z,2.78
2022-09-15T07:08:47.324Z,3.30
2022-09-15T07:11:15.711Z,3.38
2022-09-15T07:13:43.275Z,2.92
2022-09-15T07:16:12.929Z,3.45
2022-09-15T07:18:43.205Z,2.47
2022-09-15T07:21:14.064Z,2.40
2022-09-15T07:23:42.082Z,2.35
2022-09-15T07:26:14.196Z,2.85
2022-09-15T07:28:44.299Z,3.22
2022-09-15T07:31:14.768Z,3.08
2022-09-15T07:33:42.617Z,3.22
2022-09-15T07:36:10.830Z,2.15
2022-09-15T07:38:43.931Z,2.15
2022-09-15T07:41:14.656Z,2.45
2022-09-15T07:43:46.383Z,1.80
2022-09-15T07:46:14.476Z,2.03
2022-09-15T07:48:47.755Z,2.55
2022-09-15T07:51:15.915Z,2.55
2022-09-15T07:53:44.949Z,2.65
2022-09-15T07:56:13.016Z,2.20
2022-09-15T07:58:40.808Z,2.53
2022-09-15T08:01:14.635Z,2.28
2022-09-15T08:03:48.905Z,2.53
2022-09-15T08:06:19.762Z,2.40
2022-09-15T08:08:47.433Z,2.73
2022-09-15T08:11:19.188Z,2.20
2022-09-15T08:13:49.574Z,2.33
2022-09-15T08:16:20.796Z,2.92
2022-09-15T08:18:51.750Z,2.65
2022-09-15T08:21:21.034Z,2.38
2022-09-15T08:23:53.317Z,2.35
2022-09-15T08:26:20.856Z,2.67
2022-09-15T08:28:49.187Z,2.40
2022-09-15T08:31:17.339Z,1.95
2022-09-15T08:33:49.832Z,1.92
2022-09-15T08:36:18.140Z,2.17
2022-09-15T08:38:46.422Z,2.40
2022-09-15T08:41:24.785Z,2.10
2022-09-15T08:44:00.796Z,2.00
2022-09-15T08:46:39.211Z,2.50
2022-09-15T08:49:11.553Z,2.13
2022-09-15T08:51:50.518Z,2.22
2022-09-15T08:54:27.419Z,2.95
2022-09-15T08:56:57.288Z,2.95
2022-09-15T08:59:31.620Z,2.47
2022-09-15T09:02:24.045Z,2.15
2022-09-15T09:05:07.684Z,3.60
2022-09-15T09:07:57.314Z,3.85
2022-09-15T09:10:46.684Z,2.30
2022-09-15T09:13:17.043Z,2.40
2022-09-15T09:15:50.315Z,2.30
2022-09-15T09:18:34.935Z,2.67
2022-09-15T09:21:21.646Z,2.55
2022-09-15T09:23:57.510Z,2.08
2022-09-15T09:26:25.892Z,2.25
2022-09-15T09:29:00.087Z,2.13
2022-09-15T09:31:28.872Z,2.22
2022-09-15T09:34:10.149Z,2.22
2022-09-15T09:39:05.310Z,2.00
2022-09-15T09:41:36.746Z,2.67
2022-09-15T09:44:10.629Z,3.90
2022-09-15T09:46:38.743Z,3.92
2022-09-15T09:49:24.156Z,2.95
2022-09-15T09:51:52.958Z,2.95
2022-09-15T09:54:25.074Z,4.10
2022-09-15T09:56:54.544Z,4.78
2022-09-15T09:59:41.608Z,5.03
2022-09-15T10:02:11.965Z,3.80
2022-09-15T10:04:41.217Z,3.13
2022-09-15T10:07:09.328Z,3.55
2022-09-15T10:09:37.973Z,2.92
2022-09-15T10:12:07.459Z,2.92
2022-09-15T10:14:41.134Z,3.50
2022-09-15T10:17:18.473Z,3.95
2022-09-15T10:19:48.704Z,3.45
2022-09-15T10:22:23.594Z,5.70
2022-09-15T10:24:51.301Z,3.40
2022-09-15T10:27:31.104Z,3.30
2022-09-15T10:30:13.837Z,1.70
2022-09-15T10:32:43.275Z,1.73
2022-09-15T10:35:13.421Z,1.60
2022-09-15T10:37:55.996Z,2.50
2022-09-15T10:40:55.278Z,2.00
2022-09-15T10:43:40.567Z,1.95
2022-09-15T10:46:25.648Z,2.05
2022-09-15T10:49:25.572Z,1.65
2022-09-15T10:51:58.843Z,2.25
2022-09-15T10:54:32.229Z,1.90
2022-09-15T10:57:31.781Z,1.52
2022-09-15T11:00:09.006Z,1.20
2022-09-15T11:03:13.526Z,1.88
2022-09-15T11:05:54.335Z,1.88
2022-09-15T11:08:42.561Z,1.40
2022-09-15T11:11:22.663Z,1.65
2022-09-15T11:14:18.327Z,1.60
2022-09-15T11:17:09.932Z,1.63
2022-09-15T11:20:01.351Z,1.50
2022-09-15T11:22:44.106Z,1.70
2022-09-15T11:25:22.491Z,1.42
2022-09-15T11:27:54.382Z,2.00
2022-09-15T11:30:24.636Z,1.80
2022-09-15T11:32:58.098Z,1.98
2022-09-15T11:35:34.811Z,1.40
2022-09-15T11:38:40.559Z,1.50
2022-09-15T11:41:23.895Z,2.00
2022-09-15T11:44:03.891Z,1.50
2022-09-15T11:47:02.391Z,1.50
2022-09-15T11:49:33.863Z,1.73
2022-09-15T11:52:11.690Z,1.73
2022-09-15T11:54:48.759Z,2.05
2022-09-15T11:57:25.715Z,5.68
2022-09-15T11:59:57.813Z,2.65
2022-09-15T12:02:31.731Z,2.30
2022-09-15T12:05:11.143Z,1.83
2022-09-15T12:07:52.987Z,2.22
2022-09-15T12:10:26.407Z,1.95
2022-09-15T12:12:55.633Z,1.90
2022-09-15T12:15:27.682Z,1.52
2022-09-15T12:18:06.614Z,1.77
2022-09-15T12:21:02.250Z,1.63
2022-09-15T12:23:39.134Z,1.98
2022-09-15T12:26:17.538Z,1.77
2022-09-15T12:28:54.202Z,1.30
2022-09-15T12:31:30.859Z,1.48
2022-09-15T12:34:34.105Z,1.48
2022-09-15T12:37:11.139Z,1.90
2022-09-15T12:39:42.438Z,1.58
2022-09-15T12:42:31.507Z,2.22
2022-09-15T12:45:02.149Z,1.48
2022-09-15T12:47:32.591Z,1.50
2022-09-15T12:50:08.783Z,1.38
2022-09-15T12:52:46.194Z,1.75
2022-09-15T12:55:29.529Z,1.48
2022-09-15T12:58:00.253Z,1.58
2022-09-15T13:00:37.991Z,1.02
2022-09-15T13:03:38.223Z,1.48
2022-09-15T13:06:25.437Z,1.35
2022-09-15T13:08:52.980Z,1.25
2022-09-15T13:11:38.439Z,1.63
2022-09-15T13:14:14.654Z,1.50
2022-09-15T13:16:46.093Z,1.35
2022-09-15T13:19:44.355Z,1.23
2022-09-15T13:22:11.853Z,1.27
2022-09-15T13:24:48.639Z,1.20
2022-09-15T13:27:22.360Z,1.83
2022-09-15T13:29:57.910Z,1.50
2022-09-15T13:32:40.975Z,1.35
2022-09-15T13:35:39.198Z,1.50
2022-09-15T13:38:46.302Z,1.15
2022-09-15T13:41:40.100Z,1.63
2022-09-15T13:44:34.063Z,1.20
2022-09-15T13:47:07.738Z,1.40
2022-09-15T13:49:47.395Z,1.77
2022-09-15T13:52:22.245Z,1.20
2022-09-15T13:55:26.200Z,1.20
2022-09-15T14:00:57.369Z,1.60
2022-09-15T14:03:36.827Z,2.00
2022-09-15T14:06:12.244Z,1.75
2022-09-15T14:08:42.087Z,1.45
2022-09-15T14:11:15.470Z,1.77
2022-09-15T14:13:46.680Z,1.90
2022-09-15T14:19:26.628Z,1.23
2022-09-15T14:21:58.305Z,1.25
2022-09-15T14:24:31.651Z,2.00
2022-09-15T14:27:02.921Z,1.98
2022-09-15T14:29:31.127Z,1.92
2022-09-15T14:32:03.776Z,1.70
2022-09-15T14:34:37.048Z,1.50
2022-09-15T14:37:27.494Z,1.20
2022-09-15T14:39:57.827Z,1.60
2022-09-15T14:42:32.560Z,1.20
2022-09-15T14:48:09.097Z,1.60
2022-09-15T14:50:37.795Z,1.35
2022-09-15T14:53:08.252Z,1.23
2022-09-15T14:56:00.597Z,1.20
2022-09-15T14:58:45.535Z,1.25
2022-09-15T15:01:32.722Z,1.08
2022-09-15T15:04:09.924Z,1.05
2022-09-15T15:06:48.871Z,1.92
2022-09-15T15:09:26.406Z,1.50
2022-09-15T15:12:00.458Z,0.80
2022-09-15T15:14:29.003Z,1.00
2022-09-15T15:17:02.784Z,1.00
2022-09-15T15:19:39.076Z,1.13
2022-09-15T15:22:08.608Z,1.23
2022-09-15T15:24:40.991Z,0.95
2022-09-15T15:27:40.879Z,1.10
2022-09-15T15:30:43.174Z,0.90
2022-09-15T15:33:48.939Z,0.95
2022-09-15T15:36:21.494Z,1.13
2022-09-15T15:38:57.991Z,1.08
2022-09-15T15:41:40.794Z,1.02
2022-09-15T15:44:26.734Z,0.95
2022-09-15T15:47:20.156Z,1.17
2022-09-15T15:50:09.376Z,1.08
2022-09-15T15:52:35.214Z,1.20
2022-09-15T15:55:02.760Z,1.15
2022-09-15T15:57:37.216Z,0.95
2022-09-15T16:00:21.132Z,0.90
2022-09-15T16:02:51.084Z,2.65
2022-09-15T16:05:20.650Z,2.20
2022-09-15T16:07:50.291Z,0.80
2022-09-15T16:10:21.587Z,1.02
2022-09-15T16:12:49.440Z,1.02
2022-09-15T16:15:20.419Z,1.20
2022-09-15T16:17:49.090Z,1.00
2022-09-15T16:20:17.204Z,1.27
2022-09-15T16:22:44.770Z,1.00
2022-09-15T16:25:30.990Z,0.80
2022-09-15T16:27:59.953Z,1.05
2022-09-15T16:30:27.835Z,1.20
2022-09-15T16:32:55.493Z,1.60
2022-09-15T16:35:43.747Z,1.10
2022-09-15T16:38:11.640Z,1.10
2022-09-15T16:40:39.125Z,0.98
2022-09-15T16:43:12.662Z,1.40
2022-09-15T16:45:41.040Z,1.30
2022-09-15T16:48:09.753Z,1.10
2022-09-15T16:50:40.195Z,1.00
2022-09-15T16:53:15.508Z,1.05
2022-09-15T16:55:48.585Z,0.90
2022-09-15T16:58:17.550Z,1.10
2022-09-15T17:00:48.345Z,0.90
2022-09-15T17:03:18.984Z,0.77
2022-09-15T17:05:49.762Z,1.00
2022-09-15T17:08:19.961Z,0.75
2022-09-15T17:10:49.287Z,0.95
2022-09-15T17:13:19.419Z,0.80
2022-09-15T17:15:48.813Z,0.80
2022-09-15T17:18:16.971Z,0.93
2022-09-15T17:20:45.955Z,0.60
2022-09-15T17:23:28.057Z,0.70
2022-09-15T17:25:59.640Z,1.35
2022-09-15T17:28:29.535Z,1.05
2022-09-15T17:31:21.535Z,0.85
2022-09-15T17:33:50.391Z,1.23
2022-09-15T17:36:18.469Z,1.10
2022-09-15T17:38:48.056Z,1.00
2022-09-15T17:41:20.028Z,1.20
2022-09-15T17:43:47.662Z,0.80
2022-09-15T17:46:15.387Z,0.82
2022-09-15T17:48:43.015Z,1.08
2022-09-15T17:51:17.221Z,0.82
2022-09-15T17:53:47.951Z,2.03
2022-09-15T17:56:15.703Z,1.00
2022-09-15T17:58:43.845Z,1.17
2022-09-15T18:01:15.290Z,0.90
2022-09-15T18:03:44.558Z,0.80
2022-09-15T18:06:12.735Z,0.77
2022-09-15T18:08:40.719Z,1.40
2022-09-15T18:11:08.363Z,0.90
2022-09-15T18:13:37.921Z,1.55
2022-09-15T18:16:07.794Z,1.02
2022-09-15T18:18:35.515Z,1.15
2022-09-15T18:21:09.778Z,0.85
2022-09-15T18:23:38.120Z,1.50
2022-09-15T18:26:07.463Z,1.10
2022-09-15T18:28:35.482Z,1.10
2022-09-15T18:31:04.032Z,1.40
2022-09-15T18:33:32.363Z,1.50
2022-09-15T18:36:00.155Z,1.10
2022-09-15T18:38:28.151Z,1.35
2022-09-15T18:40:57.123Z,1.75
2022-09-15T18:43:27.569Z,1.77
2022-09-15T18:45:59.761Z,1.50
2022-09-15T18:48:27.723Z,1.27
2022-09-15T18:50:55.703Z,1.50
2022-09-15T18:53:23.594Z,1.40
2022-09-15T18:55:51.967Z,1.50
2022-09-15T18:58:19.578Z,1.40
2022-09-15T19:00:47.278Z,1.30
2022-09-15T19:03:14.865Z,1.30
2022-09-15T19:05:42.646Z,1.67
2022-09-15T19:08:11.417Z,1.10
2022-09-15T19:10:41.589Z,1.10
2022-09-15T19:13:11.398Z,1.48
2022-09-15T19:15:39.891Z,1.08
2022-09-15T19:18:07.652Z,1.50
2022-09-15T19:20:35.367Z,1.17
2022-09-15T19:23:03.044Z,1.10
2022-09-15T19:25:30.566Z,1.55
2022-09-15T19:27:58.104Z,1.67
2022-09-15T19:30:25.754Z,2.80
2022-09-15T19:32:55.025Z,1.90
2022-09-15T19:35:23.095Z,1.23
2022-09-15T19:37:50.741Z,1.30
2022-09-15T19:40:19.579Z,1.10
2022-09-15T19:42:50.367Z,1.67
2022-09-15T19:45:18.496Z,1.60
2022-09-15T19:47:46.102Z,1.55
2022-09-15T19:50:13.670Z,1.15
2022-09-15T19:52:41.307Z,1.65
2022-09-15T19:55:10.186Z,1.60
2022-09-15T19:57:42.200Z,1.70
2022-09-15T20:00:12.541Z,1.40
2022-09-15T20:02:40.348Z,1.02
2022-09-15T20:05:09.367Z,1.08
2022-09-15T20:07:37.718Z,1.13
2022-09-15T20:10:06.330Z,1.50
2022-09-15T20:12:33.993Z,1.30
2022-09-15T20:15:01.792Z,1.38
2022-09-15T20:17:29.592Z,1.15
2022-09-15T20:19:57.240Z,1.52
2022-09-15T20:22:25.124Z,1.30
2022-09-15T20:24:52.883Z,1.27
2022-09-15T20:27:20.527Z,1.50
2022-09-15T20:29:48.319Z,1.90
2022-09-15T20:32:16.187Z,1.80
2022-09-15T20:34:43.690Z,1.70
2022-09-15T20:37:11.777Z,1.50
2022-09-15T20:39:39.415Z,1.80
2022-09-15T20:42:07.178Z,1.42
2022-09-15T20:44:35.840Z,1.83
2022-09-15T20:47:03.702Z,1.80
2022-09-15T20:49:31.341Z,1.77
2022-09-15T20:51:58.946Z,1.75
2022-09-15T20:54:26.976Z,1.67
2022-09-15T20:56:55.551Z,2.17
2022-09-15T20:59:23.186Z,1.83
2022-09-15T21:01:50.932Z,2.50
2022-09-15T21:04:19.622Z,2.30
2022-09-15T21:06:47.624Z,1.92
2022-09-15T21:09:15.250Z,1.90
2022-09-15T21:11:43.500Z,2.50
2022-09-15T21:14:13.711Z,3.80
2022-09-15T21:16:41.715Z,2.03
2022-09-15T21:19:10.287Z,1.70
2022-09-15T21:21:38.065Z,2.45
2022-09-15T21:24:08.223Z,1.85
2022-09-15T21:26:56.698Z,1.60
2022-09-15T21:29:24.855Z,2.25
2022-09-15T21:31:52.976Z,1.60
2022-09-15T21:34:20.665Z,1.98
2022-09-15T21:36:48.319Z,1.73
2022-09-15T21:39:16.000Z,1.77
2022-09-15T21:41:43.599Z,2.17
2022-09-15T21:44:12.040Z,2.13
2022-09-15T21:46:40.209Z,2.53
2022-09-15T21:49:08.963Z,2.10
2022-09-15T21:51:37.349Z,1.83
2022-09-15T21:54:05.221Z,1.85
2022-09-15T21:56:32.734Z,1.80
2022-09-15T21:59:03.041Z,1.77
2022-09-15T22:01:32.764Z,1.85
2022-09-15T22:04:06.403Z,2.10
2022-09-15T22:06:36.579Z,1.52
2022-09-15T22:09:07.001Z,1.73
2022-09-15T22:12:00.067Z,1.52
2022-09-15T22:14:27.627Z,1.80
2022-09-15T22:16:55.337Z,1.77
2022-09-15T22:19:23.018Z,2.38
2022-09-15T22:21:50.837Z,2.13
2022-09-15T22:24:19.572Z,1.88
2022-09-15T22:26:47.707Z,1.77
2022-09-15T22:29:15.611Z,2.22
2022-09-15T22:31:43.185Z,2.28
2022-09-15T22:34:10.876Z,2.22
2022-09-15T22:36:39.341Z,2.22
2022-09-15T22:39:07.012Z,1.67
2022-09-15T22:41:37.616Z,1.95
2022-09-15T22:44:06.870Z,1.95
2022-09-15T22:46:35.040Z,1.67
2022-09-15T22:49:03.004Z,1.80
2022-09-15T22:51:30.548Z,1.80
2022-09-15T22:53:58.516Z,4.90
2022-09-15T22:56:26.925Z,2.03
2022-09-15T22:58:56.467Z,2.25
2022-09-15T23:01:27.960Z,1.77
2022-09-15T23:03:57.712Z,1.88
2022-09-15T23:06:27.896Z,1.83
2022-09-15T23:08:58.148Z,1.88
2022-09-15T23:11:26.966Z,2.00
2022-09-15T23:13:55.762Z,1.60
2022-09-15T23:16:24.737Z,1.90
2022-09-15T23:18:53.456Z,1.80
2022-09-15T23:21:21.579Z,2.17
2022-09-15T23:23:49.428Z,2.33
2022-09-15T23:26:19.707Z,1.85
2022-09-15T23:28:49.236Z,1.98
2022-09-15T23:31:17.862Z,1.65
2022-09-15T23:33:46.684Z,1.83
2022-09-15T23:36:16.450Z,2.00
2022-09-15T23:38:45.413Z,1.80
2022-09-15T23:41:14.018Z,1.77
2022-09-15T23:43:41.732Z,1.45
2022-09-15T23:46:09.865Z,2.00
2022-09-15T23:48:37.749Z,1.52
2022-09-15T23:51:05.756Z,2.28
2022-09-15T23:53:34.763Z,1.38
2022-09-15T23:56:03.143Z,1.58
2022-09-15T23:58:31.284Z,1.63
